In Rescue
 
Open Full Screen Window  High Contrast Mode
Wind Gusting 00 knots
08
October 07, 2022 4:12 PM EDT
Weather Information
Wind Direction
  330 °
Wind Speed
  08 kt (9 mph)
Wind Gust
  00 kt (0 mph)
Altimeter
30.27 in
Visibility
10 SM
Temperature
11° C
52° F
Dewpoint
00° C
32° F
Humidity
47%
1hr Rain Fall
00.00 in.
24hr Rain Fall
00.04 in.
Sky Condition
Broken @ 4,600 ft
VFR

METAR KIKW 072012Z AUTO 33008KT 10SM BKN046 11/00 A3027 RMK AO2 T01071004

FAA Disclaimer: The data displayed is for advisory purposes only and is not to be used for flight planning or operations.